Time;durP1;ratioP1;P1;durP2;ratioP2;P2;SDS_P1;SDS_P2;PMS_P1;PMS_P2;Temp;Humidity;BMP_temperature;BMP_pressure;BME280_temperature;BME280_humidity;BME280_pressure;Samples;Min_cycle;Max_cycle;Signal;HPM_P1;HPM_P2
2023/01/02 00:00:41;;;;;;;;;;;10.30;94.40;;;;;;5013379;28;19952;-88
2023/01/02 00:03:07;;;;;;;;;;;10.30;94.40;;;;;;5013761;28;20484;-87
2023/01/02 00:05:33;;;;;;;;;;;10.30;94.50;;;;;;5013654;28;19948;-87
2023/01/02 00:07:59;;;;;;;;;;;10.30;94.50;;;;;;5013624;28;19970;-87
2023/01/02 00:10:24;;;;;;;;;;;10.30;94.50;;;;;;5013652;28;20317;-87
2023/01/02 00:12:50;;;;;;;;;;;10.30;94.50;;;;;;5013499;28;20034;-87
2023/01/02 00:15:15;;;;;;;;;;;10.40;94.40;;;;;;5013307;28;20532;-87
2023/01/02 00:17:41;;;;;;;;;;;10.40;94.30;;;;;;5013282;28;19955;-88
2023/01/02 00:20:07;;;;;;;;;;;10.40;94.20;;;;;;5013217;28;20327;-88
2023/01/02 00:22:32;;;;;;;;;;;10.40;94.00;;;;;;5013507;28;20103;-87
2023/01/02 00:24:58;;;;;;;;;;;10.40;94.00;;;;;;5013389;28;19944;-88
2023/01/02 00:27:23;;;;;;;;;;;10.30;94.10;;;;;;5012510;28;19978;-88
2023/01/02 00:29:49;;;;;;;;;;;10.30;94.20;;;;;;5012984;28;20350;-88
2023/01/02 00:32:14;;;;;;;;;;;10.40;94.20;;;;;;5013464;28;20368;-88
2023/01/02 00:34:40;;;;;;;;;;;10.40;94.20;;;;;;5013256;28;19953;-88
2023/01/02 00:37:05;;;;;;;;;;;10.40;94.10;;;;;;5013326;28;19953;-88
2023/01/02 00:39:31;;;;;;;;;;;10.40;93.80;;;;;;5013143;28;19953;-88
2023/01/02 00:41:56;;;;;;;;;;;10.30;94.20;;;;;;5013216;28;20422;-88
2023/01/02 00:44:22;;;;;;;;;;;10.30;94.40;;;;;;5011659;28;19946;-88
2023/01/02 00:46:47;;;;;;;;;;;10.40;94.40;;;;;;5012986;28;19943;-88
2023/01/02 00:49:13;;;;;;;;;;;10.40;94.60;;;;;;5012906;28;19950;-87
2023/01/02 00:51:38;;;;;;;;;;;10.40;94.60;;;;;;5013018;28;19967;-88
2023/01/02 00:54:04;;;;;;;;;;;10.40;94.60;;;;;;5012787;28;20315;-87
2023/01/02 00:56:29;;;;;;;;;;;10.40;94.40;;;;;;5012969;28;20347;-88
2023/01/02 00:58:55;;;;;;;;;;;10.40;94.40;;;;;;5013168;28;19953;-87
2023/01/02 01:01:21;;;;;;;;;;;10.40;94.20;;;;;;5012781;28;19944;-87
2023/01/02 01:03:46;;;;;;;;;;;10.30;94.20;;;;;;5012959;28;20197;-87
2023/01/02 01:06:13;;;;;;;;;;;10.20;94.40;;;;;;5012900;28;19939;-87
2023/01/02 01:08:39;;;;;;;;;;;10.30;94.50;;;;;;5012971;28;19949;-87
2023/01/02 01:11:09;;;;;;;;;;;10.40;94.60;;;;;;5012847;28;20306;-87
2023/01/02 01:13:34;;;;;;;;;;;10.40;94.60;;;;;;5013038;28;19958;-87
2023/01/02 01:16:04;;;;;;;;;;;10.40;94.50;;;;;;5012483;28;20005;-87
2023/01/02 01:18:29;;;;;;;;;;;10.40;94.60;;;;;;5012530;28;20407;-87
2023/01/02 01:20:55;;;;;;;;;;;10.60;94.10;;;;;;5012564;28;19950;-88
2023/01/02 01:23:22;;;;;;;;;;;10.60;93.60;;;;;;5012647;28;19951;-88
2023/01/02 01:25:48;;;;;;;;;;;10.60;93.50;;;;;;5012840;28;20045;-87
2023/01/02 01:28:13;;;;;;;;;;;10.50;93.50;;;;;;5012948;28;19990;-87
2023/01/02 01:30:39;;;;;;;;;;;10.40;93.70;;;;;;5012528;28;19995;-87
2023/01/02 01:33:04;;;;;;;;;;;10.40;93.90;;;;;;5012656;28;19965;-87
2023/01/02 01:35:31;;;;;;;;;;;10.40;93.90;;;;;;5012736;28;19948;-87
2023/01/02 01:37:57;;;;;;;;;;;10.40;93.90;;;;;;5012549;28;19950;-87
2023/01/02 01:40:22;;;;;;;;;;;10.40;94.10;;;;;;5016115;28;20039;-87
2023/01/02 01:42:48;;;;;;;;;;;10.40;94.10;;;;;;5016529;28;19961;-87
2023/01/02 01:45:14;;;;;;;;;;;10.40;94.00;;;;;;5015727;28;20346;-87
2023/01/02 01:47:52;;;;;;;;;;;10.30;94.00;;;;;;5016406;28;19943;-87
2023/01/02 01:50:17;;;;;;;;;;;10.40;94.10;;;;;;5016226;28;20159;-87
2023/01/02 01:52:51;;;;;;;;;;;10.30;94.10;;;;;;5015759;28;20523;-87
2023/01/02 01:55:39;;;;;;;;;;;10.20;94.20;;;;;;5015860;28;20292;-87
2023/01/02 01:58:11;;;;;;;;;;;10.20;94.30;;;;;;5012423;28;20003;-87
2023/01/02 02:00:38;;;;;;;;;;;10.20;94.30;;;;;;5015963;28;19993;-87
2023/01/02 02:03:05;;;;;;;;;;;10.20;94.40;;;;;;5015721;28;20001;-87
2023/01/02 02:05:31;;;;;;;;;;;10.30;94.50;;;;;;5015981;28;20110;-87
2023/01/02 02:08:00;;;;;;;;;;;10.40;94.50;;;;;;5015759;28;20420;-87
2023/01/02 02:10:25;;;;;;;;;;;10.40;94.30;;;;;;5015554;28;19958;-87
2023/01/02 02:12:51;;;;;;;;;;;10.30;94.20;;;;;;5015532;28;19975;-87
2023/01/02 02:15:18;;;;;;;;;;;10.30;94.20;;;;;;5015687;28;20056;-87
2023/01/02 02:18:02;;;;;;;;;;;10.30;94.30;;;;;;5015802;28;19944;-87
2023/01/02 02:20:57;;;;;;;;;;;10.10;94.30;;;;;;5015444;28;19950;-87
2023/01/02 02:24:01;;;;;;;;;;;10.10;94.50;;;;;;4996267;28;19948;-87
2023/01/02 02:26:36;;;;;;;;;;;10.40;94.70;;;;;;4993489;28;19958;-87
2023/01/02 02:29:14;;;;;;;;;;;10.50;94.60;;;;;;4993580;28;19950;-87
2023/01/02 02:31:55;;;;;;;;;;;10.60;94.60;;;;;;4986710;28;19940;-87
2023/01/02 02:34:20;;;;;;;;;;;10.80;94.50;;;;;;5003942;28;20081;-87
2023/01/02 02:36:54;;;;;;;;;;;10.80;93.50;;;;;;5015308;28;20055;-87
2023/01/02 02:39:25;;;;;;;;;;;10.70;93.60;;;;;;5015238;28;19943;-87
2023/01/02 02:42:05;;;;;;;;;;;10.60;93.40;;;;;;5015424;28;19936;-87
2023/01/02 02:44:34;;;;;;;;;;;10.50;93.50;;;;;;5015224;28;19972;-87
2023/01/02 02:47:07;;;;;;;;;;;10.40;93.50;;;;;;5015154;28;20032;-87
2023/01/02 02:49:48;;;;;;;;;;;10.30;93.70;;;;;;5014986;28;20038;-87
2023/01/02 02:52:28;;;;;;;;;;;10.20;93.90;;;;;;5014786;28;19962;-87
2023/01/02 02:55:09;;;;;;;;;;;10.20;94.10;;;;;;5013085;28;20037;-87
2023/01/02 02:57:35;;;;;;;;;;;10.20;94.40;;;;;;5014747;28;19970;-87
2023/01/02 03:00:03;;;;;;;;;;;10.10;94.40;;;;;;5014728;28;20085;-87
2023/01/02 03:02:28;;;;;;;;;;;10.10;94.50;;;;;;5015030;28;19964;-87
2023/01/02 03:04:56;;;;;;;;;;;10.10;94.70;;;;;;5014775;28;20346;-87
2023/01/02 03:07:37;;;;;;;;;;;10.20;94.80;;;;;;5014591;28;19949;-87
2023/01/02 03:10:03;;;;;;;;;;;10.30;94.90;;;;;;5014698;28;20424;-87
2023/01/02 03:12:35;;;;;;;;;;;10.40;94.60;;;;;;5014830;28;19944;-87
2023/01/02 03:15:00;;;;;;;;;;;10.40;94.40;;;;;;5032355;22;19978;-87
2023/01/02 03:17:31;;;;;;;;;;;10.40;94.40;;;;;;5054358;28;20031;-87
2023/01/02 03:19:59;;;;;;;;;;;10.30;94.30;;;;;;5053392;28;20040;-87
2023/01/02 03:22:33;;;;;;;;;;;10.20;94.40;;;;;;5054176;28;19950;-87
2023/01/02 03:24:58;;;;;;;;;;;10.40;94.50;;;;;;5053662;28;20408;-87
2023/01/02 03:27:26;;;;;;;;;;;10.50;94.50;;;;;;5053792;28;19989;-87
2023/01/02 03:30:18;;;;;;;;;;;10.60;94.50;;;;;;5053797;28;20182;-87
2023/01/02 03:32:53;;;;;;;;;;;10.70;94.40;;;;;;5049590;28;20063;-87
2023/01/02 03:35:23;;;;;;;;;;;10.90;94.20;;;;;;5053988;28;20001;-87
2023/01/02 03:37:50;;;;;;;;;;;10.80;94.00;;;;;;5053930;28;20063;-87
2023/01/02 03:40:23;;;;;;;;;;;10.90;94.00;;;;;;5053940;28;20401;-87
2023/01/02 03:42:52;;;;;;;;;;;10.80;93.80;;;;;;5053950;28;19943;-87
2023/01/02 03:45:22;;;;;;;;;;;11.00;93.70;;;;;;5053880;28;19938;-87
2023/01/02 03:47:52;;;;;;;;;;;10.90;93.50;;;;;;5053935;28;20125;-87
2023/01/02 03:50:21;;;;;;;;;;;10.90;93.40;;;;;;5053466;28;20164;-87
2023/01/02 03:52:46;;;;;;;;;;;10.80;93.40;;;;;;5053609;28;19959;-87
2023/01/02 03:55:12;;;;;;;;;;;10.80;93.20;;;;;;5053110;28;20395;-87
2023/01/02 03:57:40;;;;;;;;;;;10.60;93.20;;;;;;5053697;28;19948;-87
2023/01/02 04:00:08;;;;;;;;;;;10.70;93.30;;;;;;5053466;28;19997;-87
2023/01/02 04:02:43;;;;;;;;;;;10.60;93.30;;;;;;5053296;28;20448;-87
2023/01/02 04:05:13;;;;;;;;;;;10.40;93.40;;;;;;5053348;28;19945;-87
2023/01/02 04:07:43;;;;;;;;;;;10.40;93.70;;;;;;5053687;28;19943;-87
2023/01/02 04:10:10;;;;;;;;;;;10.50;93.70;;;;;;5053188;28;20002;-87
2023/01/02 04:12:37;;;;;;;;;;;10.50;93.60;;;;;;5053633;28;19938;-87
2023/01/02 04:15:06;;;;;;;;;;;10.60;93.30;;;;;;5053050;28;20002;-87
2023/01/02 04:17:35;;;;;;;;;;;10.60;93.30;;;;;;5053190;28;19950;-87
2023/01/02 04:20:06;;;;;;;;;;;10.50;93.20;;;;;;5052887;28;19954;-87
2023/01/02 04:22:35;;;;;;;;;;;10.40;93.70;;;;;;5052800;28;20363;-87
2023/01/02 04:25:12;;;;;;;;;;;10.40;93.70;;;;;;5053062;28;19973;-87
2023/01/02 04:27:42;;;;;;;;;;;10.40;93.90;;;;;;5052992;28;20041;-87
2023/01/02 04:30:07;;;;;;;;;;;10.40;94.00;;;;;;5052821;28;19955;-87
2023/01/02 04:32:37;;;;;;;;;;;10.40;94.10;;;;;;5052879;28;20306;-87
2023/01/02 04:35:08;;;;;;;;;;;10.40;94.10;;;;;;5052997;28;20037;-87
2023/01/02 04:37:36;;;;;;;;;;;10.50;94.10;;;;;;5052446;28;19955;-87
2023/01/02 04:40:04;;;;;;;;;;;10.40;94.00;;;;;;5052764;28;19954;-87
2023/01/02 04:42:30;;;;;;;;;;;10.40;94.30;;;;;;5052742;28;19990;-87
2023/01/02 04:44:55;;;;;;;;;;;10.40;94.40;;;;;;5052783;28;19944;-87
2023/01/02 04:47:21;;;;;;;;;;;10.40;94.40;;;;;;5052942;28;19988;-87
2023/01/02 04:49:46;;;;;;;;;;;10.30;94.40;;;;;;5052734;28;19997;-87
2023/01/02 04:52:12;;;;;;;;;;;10.30;94.50;;;;;;5052447;28;19994;-87
2023/01/02 04:54:37;;;;;;;;;;;10.30;94.50;;;;;;5052561;28;20422;-87
2023/01/02 04:57:03;;;;;;;;;;;10.40;94.50;;;;;;5052603;28;19948;-87
2023/01/02 04:59:28;;;;;;;;;;;10.30;94.40;;;;;;5052424;28;19955;-88
2023/01/02 05:01:54;;;;;;;;;;;10.40;94.40;;;;;;5052856;28;19940;-87
2023/01/02 05:04:19;;;;;;;;;;;10.40;94.40;;;;;;5052423;28;20315;-87
2023/01/02 05:06:45;;;;;;;;;;;10.30;94.50;;;;;;5052471;28;19981;-87
2023/01/02 05:09:10;;;;;;;;;;;10.30;94.50;;;;;;5034842;28;19944;-87
2023/01/02 05:11:36;;;;;;;;;;;10.30;94.60;;;;;;5052526;28;19954;-87
2023/01/02 05:14:01;;;;;;;;;;;10.30;94.60;;;;;;5054205;28;19970;-87
2023/01/02 05:16:27;;;;;;;;;;;10.30;94.70;;;;;;5056405;28;19980;-87
2023/01/02 05:18:52;;;;;;;;;;;10.40;94.70;;;;;;5038822;28;19946;-87
2023/01/02 05:24:02;;;;;;;;;;;10.40;94.70;;;;;;5056611;28;20002;-87
2023/01/02 05:26:29;;;;;;;;;;;10.40;94.50;;;;;;5056306;28;19948;-87
2023/01/02 05:28:55;;;;;;;;;;;10.40;94.50;;;;;;5056307;28;19982;-87
2023/01/02 05:31:21;;;;;;;;;;;10.40;94.50;;;;;;5038298;28;20353;-87
2023/01/02 05:33:50;;;;;;;;;;;10.40;94.50;;;;;;5056301;28;20414;-87
2023/01/02 05:36:16;;;;;;;;;;;10.50;94.30;;;;;;5056114;28;19941;-87
2023/01/02 05:38:41;;;;;;;;;;;10.40;94.30;;;;;;5056147;28;20048;-87
2023/01/02 05:41:07;;;;;;;;;;;10.40;94.40;;;;;;5055669;28;19971;-88
2023/01/02 05:43:34;;;;;;;;;;;10.50;94.50;;;;;;5038038;28;20385;-87
2023/01/02 05:46:09;;;;;;;;;;;10.50;94.50;;;;;;5055808;28;19953;-87
2023/01/02 05:48:35;;;;;;;;;;;10.40;94.60;;;;;;5055938;28;19952;-87
2023/01/02 05:51:04;;;;;;;;;;;10.60;94.80;;;;;;5055803;28;19946;-87
2023/01/02 05:53:30;;;;;;;;;;;10.80;94.70;;;;;;5054519;28;19974;-88
2023/01/02 05:56:02;;;;;;;;;;;10.80;94.20;;;;;;5054278;28;19963;-87
2023/01/02 05:58:29;;;;;;;;;;;10.50;94.20;;;;;;5055400;28;20422;-88
2023/01/02 06:00:55;;;;;;;;;;;10.40;94.40;;;;;;5051087;28;19943;-87
2023/01/02 06:03:20;;;;;;;;;;;10.30;94.40;;;;;;5054979;28;19946;-87
2023/01/02 06:05:45;;;;;;;;;;;10.30;94.60;;;;;;5055324;28;19944;-87
2023/01/02 06:08:11;;;;;;;;;;;10.40;94.60;;;;;;5054490;28;20039;-87
2023/01/02 06:10:36;;;;;;;;;;;10.20;94.50;;;;;;5054271;28;19950;-87
2023/01/02 06:13:02;;;;;;;;;;;10.10;94.70;;;;;;5045918;28;19965;-87
2023/01/02 06:15:27;;;;;;;;;;;10.00;94.90;;;;;;5054946;28;20417;-87
2023/01/02 06:17:53;;;;;;;;;;;10.10;95.00;;;;;;5055313;28;19948;-87
2023/01/02 06:20:18;;;;;;;;;;;10.10;95.00;;;;;;5054885;28;19948;-87
2023/01/02 06:22:44;;;;;;;;;;;10.10;95.00;;;;;;5054891;28;19946;-87
2023/01/02 06:25:09;;;;;;;;;;;10.20;95.10;;;;;;5052751;28;19942;-88
2023/01/02 06:27:35;;;;;;;;;;;10.30;95.20;;;;;;5055006;28;19957;-87
2023/01/02 06:30:00;;;;;;;;;;;10.40;95.00;;;;;;5051710;28;20355;-87
2023/01/02 06:32:26;;;;;;;;;;;10.40;94.70;;;;;;5054514;28;19955;-87
2023/01/02 06:34:51;;;;;;;;;;;10.30;94.90;;;;;;5052585;28;19970;-87
2023/01/02 06:37:17;;;;;;;;;;;10.30;94.90;;;;;;5054309;28;19945;-87
2023/01/02 06:39:42;;;;;;;;;;;10.20;95.00;;;;;;5053729;28;20007;-87
2023/01/02 06:42:08;;;;;;;;;;;10.20;95.00;;;;;;5054644;28;19946;-87
2023/01/02 06:44:33;;;;;;;;;;;10.10;95.00;;;;;;5054693;28;20540;-87
2023/01/02 06:46:59;;;;;;;;;;;10.20;95.10;;;;;;5054548;28;19975;-87
2023/01/02 06:49:24;;;;;;;;;;;10.20;95.20;;;;;;5054303;28;20079;-87
2023/01/02 06:51:50;;;;;;;;;;;10.30;95.30;;;;;;5054096;28;19959;-87
2023/01/02 06:54:15;;;;;;;;;;;10.40;95.30;;;;;;5054453;28;20144;-87
2023/01/02 06:56:41;;;;;;;;;;;10.40;95.20;;;;;;5053568;28;20409;-87
2023/01/02 06:59:08;;;;;;;;;;;10.50;94.90;;;;;;5054267;28;19954;-87
2023/01/02 07:01:33;;;;;;;;;;;10.50;94.60;;;;;;5053773;28;20051;-87
2023/01/02 07:03:59;;;;;;;;;;;10.30;94.70;;;;;;5045341;28;20053;-87
2023/01/02 07:06:26;;;;;;;;;;;10.30;94.80;;;;;;5052679;28;19984;-87
2023/01/02 07:08:52;;;;;;;;;;;10.40;94.80;;;;;;5053839;28;19972;-87
2023/01/02 07:11:19;;;;;;;;;;;10.30;94.60;;;;;;5052245;28;19945;-87
2023/01/02 07:13:45;;;;;;;;;;;10.30;94.90;;;;;;5052917;28;19961;-87
2023/01/02 07:16:12;;;;;;;;;;;10.30;94.90;;;;;;5044602;28;20101;-87
2023/01/02 07:18:38;;;;;;;;;;;10.30;95.00;;;;;;5035923;28;19989;-87
2023/01/02 07:21:04;;;;;;;;;;;10.40;95.10;;;;;;5049306;28;19975;-87
2023/01/02 07:23:30;;;;;;;;;;;10.60;95.00;;;;;;5052959;28;20375;-87
2023/01/02 07:25:57;;;;;;;;;;;10.70;94.80;;;;;;5052863;28;19970;-87
2023/01/02 07:28:23;;;;;;;;;;;10.80;94.60;;;;;;5041350;28;19946;-87
2023/01/02 07:30:48;;;;;;;;;;;10.80;94.10;;;;;;5051600;28;20014;-87
2023/01/02 07:33:14;;;;;;;;;;;10.80;93.60;;;;;;5053322;28;20400;-87
2023/01/02 07:35:40;;;;;;;;;;;10.60;93.20;;;;;;5045113;28;19945;-87
2023/01/02 07:38:05;;;;;;;;;;;10.40;93.90;;;;;;5052431;28;20106;-87
2023/01/02 07:40:31;;;;;;;;;;;10.30;94.30;;;;;;5046542;28;20391;-87
2023/01/02 07:42:57;;;;;;;;;;;10.20;94.30;;;;;;5053090;28;19943;-87
2023/01/02 07:45:22;;;;;;;;;;;10.30;94.50;;;;;;5050399;28;20039;-87
2023/01/02 07:47:48;;;;;;;;;;;10.40;94.60;;;;;;5041093;28;19944;-87
2023/01/02 07:50:13;;;;;;;;;;;10.70;94.50;;;;;;5052086;28;19941;-87
2023/01/02 07:52:40;;;;;;;;;;;10.70;94.20;;;;;;5052498;28;20326;-87
2023/01/02 07:55:06;;;;;;;;;;;10.70;94.30;;;;;;5053223;28;20468;-87
2023/01/02 07:57:32;;;;;;;;;;;10.70;94.30;;;;;;5052765;28;19953;-87
2023/01/02 07:59:57;;;;;;;;;;;10.70;94.40;;;;;;5041796;28;19953;-87
2023/01/02 08:02:23;;;;;;;;;;;10.70;94.20;;;;;;5052169;28;20025;-88
2023/01/02 08:04:49;;;;;;;;;;;10.60;94.50;;;;;;5032869;28;20312;-87
2023/01/02 08:07:14;;;;;;;;;;;10.70;93.80;;;;;;5052836;28;19946;-87
2023/01/02 08:09:40;;;;;;;;;;;10.70;93.50;;;;;;5052701;28;20001;-87
2023/01/02 08:12:05;;;;;;;;;;;10.70;93.40;;;;;;5051651;28;20338;-87
2023/01/02 08:14:31;;;;;;;;;;;10.70;93.50;;;;;;5041210;28;19993;-87
2023/01/02 08:16:56;;;;;;;;;;;10.60;93.40;;;;;;5052512;28;19959;-87
2023/01/02 08:19:22;;;;;;;;;;;10.40;93.90;;;;;;5052303;28;20327;-87
2023/01/02 08:21:47;;;;;;;;;;;10.40;94.10;;;;;;5053189;28;19989;-87
2023/01/02 08:24:13;;;;;;;;;;;10.40;94.40;;;;;;5052078;28;20014;-87
2023/01/02 08:26:38;;;;;;;;;;;10.40;94.80;;;;;;5044774;28;19950;-88
2023/01/02 08:29:04;;;;;;;;;;;10.40;94.80;;;;;;5051445;28;19967;-87
2023/01/02 08:31:29;;;;;;;;;;;10.50;94.90;;;;;;5052597;28;19943;-87
2023/01/02 08:33:55;;;;;;;;;;;10.70;94.80;;;;;;5048034;28;20014;-87
2023/01/02 08:36:20;;;;;;;;;;;10.90;94.60;;;;;;5049526;28;20372;-87
2023/01/02 08:38:46;;;;;;;;;;;10.90;93.90;;;;;;5051988;28;20435;-87
2023/01/02 08:41:12;;;;;;;;;;;10.90;93.30;;;;;;5052133;28;20000;-87
2023/01/02 08:43:37;;;;;;;;;;;10.80;93.30;;;;;;5051493;28;20393;-87
2023/01/02 08:46:06;;;;;;;;;;;10.80;93.30;;;;;;5052627;28;19946;-87
2023/01/02 08:48:32;;;;;;;;;;;10.80;93.30;;;;;;5051436;28;19948;-87
2023/01/02 08:50:58;;;;;;;;;;;10.70;93.50;;;;;;5052288;28;19980;-87
2023/01/02 08:53:23;;;;;;;;;;;10.80;93.70;;;;;;5050766;28;20028;-87
2023/01/02 08:55:49;;;;;;;;;;;11.00;93.70;;;;;;5052132;28;20512;-87
2023/01/02 08:58:14;;;;;;;;;;;11.10;93.60;;;;;;5046010;28;19955;-87
2023/01/02 09:00:40;;;;;;;;;;;11.30;93.40;;;;;;5051079;28;19982;-87
2023/01/02 09:03:06;;;;;;;;;;;11.30;93.20;;;;;;5052332;28;19956;-87
2023/01/02 09:05:31;;;;;;;;;;;11.30;92.80;;;;;;5052568;28;20401;-87
2023/01/02 09:07:57;;;;;;;;;;;11.30;92.90;;;;;;5046936;28;20033;-87
2023/01/02 09:10:23;;;;;;;;;;;11.40;92.30;;;;;;5052752;28;20444;-87
2023/01/02 09:12:48;;;;;;;;;;;11.40;91.40;;;;;;5052191;28;20188;-87
2023/01/02 09:15:14;;;;;;;;;;;11.30;91.40;;;;;;5051783;28;20029;-88
2023/01/02 09:17:39;;;;;;;;;;;11.20;91.50;;;;;;5052454;28;19942;-87
2023/01/02 09:20:05;;;;;;;;;;;11.10;91.90;;;;;;5051994;28;19945;-87
2023/01/02 09:22:30;;;;;;;;;;;10.90;92.30;;;;;;5050366;28;19948;-87
2023/01/02 09:24:56;;;;;;;;;;;10.80;92.70;;;;;;5032700;28;20034;-87
2023/01/02 09:27:21;;;;;;;;;;;10.80;93.00;;;;;;5034086;28;19944;-87
2023/01/02 09:29:47;;;;;;;;;;;10.90;93.10;;;;;;5052092;28;20084;-87
2023/01/02 09:32:12;;;;;;;;;;;10.90;93.20;;;;;;5052307;28;20476;-87
2023/01/02 09:34:38;;;;;;;;;;;10.90;93.20;;;;;;5051903;28;19959;-87
2023/01/02 09:37:03;;;;;;;;;;;10.90;93.30;;;;;;5052275;28;19954;-87
2023/01/02 09:39:29;;;;;;;;;;;10.90;93.20;;;;;;5051688;28;19947;-87
2023/01/02 09:41:57;;;;;;;;;;;10.90;93.20;;;;;;5051712;28;19951;-87
2023/01/02 09:44:32;;;;;;;;;;;11.10;93.10;;;;;;5050969;28;20447;-87
2023/01/02 09:46:59;;;;;;;;;;;11.10;92.50;;;;;;5052176;28;19953;-87
2023/01/02 09:49:26;;;;;;;;;;;11.00;92.80;;;;;;5051758;28;19937;-87
2023/01/02 09:51:52;;;;;;;;;;;10.80;93.10;;;;;;5050674;28;20369;-87
2023/01/02 09:54:26;;;;;;;;;;;10.90;93.40;;;;;;5046813;28;19959;-87
2023/01/02 09:57:03;;;;;;;;;;;10.90;93.40;;;;;;5016039;28;20358;-87
2023/01/02 09:59:32;;;;;;;;;;;10.90;93.50;;;;;;5051754;28;19968;-87
2023/01/02 10:02:02;;;;;;;;;;;10.90;93.60;;;;;;5036717;28;19940;-87
2023/01/02 10:04:28;;;;;;;;;;;10.80;93.80;;;;;;5055037;28;20310;-87
2023/01/02 10:06:54;;;;;;;;;;;10.90;93.80;;;;;;5054792;28;20069;-87
2023/01/02 10:09:29;;;;;;;;;;;11.00;93.80;;;;;;5048290;28;19974;-87
2023/01/02 10:12:13;;;;;;;;;;;11.00;93.80;;;;;;5043990;28;19970;-87
2023/01/02 10:14:48;;;;;;;;;;;10.90;93.40;;;;;;5050732;28;19959;-87
2023/01/02 10:17:16;;;;;;;;;;;10.90;93.30;;;;;;5055326;28;19946;-87
2023/01/02 10:19:50;;;;;;;;;;;10.90;93.50;;;;;;5040305;28;20412;-86
2023/01/02 10:22:19;;;;;;;;;;;11.00;93.40;;;;;;5054024;28;19941;-87
2023/01/02 10:24:50;;;;;;;;;;;10.80;93.60;;;;;;5055235;28;19956;-87
2023/01/02 10:27:21;;;;;;;;;;;10.80;93.80;;;;;;5054879;28;19940;-87
2023/01/02 10:30:01;;;;;;;;;;;10.90;93.80;;;;;;5048012;28;19991;-87
2023/01/02 10:32:29;;;;;;;;;;;10.90;93.90;;;;;;5054239;28;19955;-87
2023/01/02 10:34:58;;;;;;;;;;;11.10;93.70;;;;;;5037307;28;20004;-87
2023/01/02 10:37:24;;;;;;;;;;;11.10;93.60;;;;;;5044169;28;19944;-87
2023/01/02 10:39:50;;;;;;;;;;;11.10;93.70;;;;;;5048990;28;19947;-87
2023/01/02 10:42:16;;;;;;;;;;;11.10;93.60;;;;;;5039629;28;20008;-87
2023/01/02 10:44:43;;;;;;;;;;;11.20;93.60;;;;;;5049652;28;19969;-87
2023/01/02 10:47:18;;;;;;;;;;;11.20;93.40;;;;;;5054811;28;19951;-87
2023/01/02 10:49:44;;;;;;;;;;;11.30;93.50;;;;;;5054801;28;19965;-87
2023/01/02 10:52:17;;;;;;;;;;;11.50;93.20;;;;;;5054666;28;20407;-87
2023/01/02 10:54:50;;;;;;;;;;;11.60;92.20;;;;;;5035054;28;19972;-87
2023/01/02 10:57:21;;;;;;;;;;;11.50;91.50;;;;;;5046492;28;19949;-87
2023/01/02 10:59:51;;;;;;;;;;;11.30;91.80;;;;;;5054697;28;19962;-87
2023/01/02 11:02:27;;;;;;;;;;;11.30;92.10;;;;;;5054543;28;19937;-87
2023/01/02 11:04:53;;;;;;;;;;;11.30;92.20;;;;;;5054507;28;20003;-87
2023/01/02 11:07:23;;;;;;;;;;;11.10;92.20;;;;;;5053400;28;19943;-87
2023/01/02 11:09:52;;;;;;;;;;;11.00;92.60;;;;;;5054423;28;19950;-87
2023/01/02 11:12:18;;;;;;;;;;;10.90;93.10;;;;;;5053769;28;20038;-87
2023/01/02 11:14:43;;;;;;;;;;;11.00;93.30;;;;;;5056010;22;20023;-87
2023/01/02 11:17:09;;;;;;;;;;;11.00;93.30;;;;;;5028431;28;20391;-87
2023/01/02 11:19:39;;;;;;;;;;;11.10;93.30;;;;;;5016636;28;20385;-87
2023/01/02 11:22:05;;;;;;;;;;;11.00;93.40;;;;;;5014680;28;20397;-87
2023/01/02 11:24:31;;;;;;;;;;;11.10;93.40;;;;;;5026004;28;20099;-87
2023/01/02 11:26:59;;;;;;;;;;;11.10;93.40;;;;;;5033208;28;19989;-87
2023/01/02 11:29:25;;;;;;;;;;;11.10;93.40;;;;;;5034032;28;19976;-87
2023/01/02 11:31:52;;;;;;;;;;;11.10;93.20;;;;;;5034301;28;19989;-87
2023/01/02 11:34:22;;;;;;;;;;;11.00;93.30;;;;;;5020181;28;19964;-87
2023/01/02 11:37:04;;;;;;;;;;;11.00;93.40;;;;;;5030375;28;20405;-87
2023/01/02 11:39:31;;;;;;;;;;;10.90;93.50;;;;;;5034015;28;19950;-87
2023/01/02 11:45:04;;;;;;;;;;;10.80;93.80;;;;;;5022715;28;19972;-87
2023/01/02 11:47:31;;;;;;;;;;;10.80;93.90;;;;;;5014182;28;20418;-87
2023/01/02 11:49:57;;;;;;;;;;;10.80;94.00;;;;;;5014442;28;19952;-87
2023/01/02 11:52:26;;;;;;;;;;;10.80;94.10;;;;;;5014145;28;19968;-87
2023/01/02 11:54:59;;;;;;;;;;;10.80;94.10;;;;;;5013744;28;20437;-87
2023/01/02 11:57:24;;;;;;;;;;;10.80;94.20;;;;;;5013908;28;20427;-87
2023/01/02 11:59:52;;;;;;;;;;;10.80;94.20;;;;;;5013825;28;19948;-87
2023/01/02 12:02:22;;;;;;;;;;;10.80;94.20;;;;;;5013834;28;19953;-87
2023/01/02 12:04:47;;;;;;;;;;;10.90;94.10;;;;;;5013748;28;20317;-87
2023/01/02 12:07:29;;;;;;;;;;;11.00;93.90;;;;;;5013715;28;19947;-87
2023/01/02 12:10:05;;;;;;;;;;;11.00;93.80;;;;;;5013751;28;20028;-87
2023/01/02 12:12:49;;;;;;;;;;;11.00;93.70;;;;;;5013863;28;19947;-87
2023/01/02 12:15:15;;;;;;;;;;;11.00;93.80;;;;;;5009735;28;20116;-87
2023/01/02 12:17:43;;;;;;;;;;;11.00;93.90;;;;;;5013834;28;20043;-87
2023/01/02 12:20:26;;;;;;;;;;;11.10;93.90;;;;;;5014739;28;20549;-87
2023/01/02 12:22:55;;;;;;;;;;;11.10;94.00;;;;;;5012543;28;19964;-87
2023/01/02 12:25:32;;;;;;;;;;;11.20;94.00;;;;;;5013138;28;19947;-87
2023/01/02 12:28:05;;;;;;;;;;;11.20;93.80;;;;;;5013177;28;20022;-87
2023/01/02 12:30:33;;;;;;;;;;;11.50;93.70;;;;;;5013386;28;20036;-87
2023/01/02 12:33:10;;;;;;;;;;;11.70;93.50;;;;;;5013555;28;19945;-87
2023/01/02 12:35:48;;;;;;;;;;;11.80;93.20;;;;;;5007935;28;19961;-87
2023/01/02 12:38:22;;;;;;;;;;;11.80;91.90;;;;;;5012297;28;19951;-87
2023/01/02 12:40:50;;;;;;;;;;;11.60;91.80;;;;;;5012705;28;19988;-87
2023/01/02 12:43:35;;;;;;;;;;;11.50;92.20;;;;;;5012090;28;19951;-87
2023/01/02 12:46:06;;;;;;;;;;;11.40;92.30;;;;;;4993732;28;19983;-87
2023/01/02 12:48:55;;;;;;;;;;;11.40;92.50;;;;;;5008809;28;20389;-87
2023/01/02 12:51:36;;;;;;;;;;;11.50;92.30;;;;;;5007127;28;19980;-87
2023/01/02 12:54:20;;;;;;;;;;;11.60;92.40;;;;;;5002082;28;20071;-88
2023/01/02 12:56:53;;;;;;;;;;;11.70;91.90;;;;;;5013098;28;20045;-88
2023/01/02 12:59:44;;;;;;;;;;;11.70;91.60;;;;;;5013104;28;20023;-88
2023/01/02 13:02:17;;;;;;;;;;;11.60;91.70;;;;;;5012457;28;20406;-88
2023/01/02 13:04:47;;;;;;;;;;;11.60;91.70;;;;;;5012799;28;19956;-88
2023/01/02 13:07:16;;;;;;;;;;;11.70;91.70;;;;;;5012476;28;19950;-87
2023/01/02 13:09:43;;;;;;;;;;;11.80;91.60;;;;;;5012661;28;20039;-88
2023/01/02 13:12:12;;;;;;;;;;;11.90;91.30;;;;;;5012487;28;19942;-86
2023/01/02 13:14:41;;;;;;;;;;;11.80;90.60;;;;;;5010545;28;19973;-88
2023/01/02 13:17:25;;;;;;;;;;;11.60;90.90;;;;;;5013101;28;19970;-87
2023/01/02 13:20:03;;;;;;;;;;;11.60;91.20;;;;;;5012642;28;20052;-87
2023/01/02 13:22:28;;;;;;;;;;;11.50;91.40;;;;;;5012462;28;20409;-87
2023/01/02 13:24:55;;;;;;;;;;;11.40;91.50;;;;;;5006861;28;19941;-87
2023/01/02 13:27:21;;;;;;;;;;;11.40;91.80;;;;;;5003200;28;19949;-87
2023/01/02 13:29:47;;;;;;;;;;;11.50;91.90;;;;;;5004314;28;19946;-87
2023/01/02 13:32:13;;;;;;;;;;;11.50;91.70;;;;;;5007860;28;20430;-87
2023/01/02 13:34:50;;;;;;;;;;;11.40;91.90;;;;;;5010841;28;20374;-87
2023/01/02 13:37:17;;;;;;;;;;;11.40;91.90;;;;;;5015755;28;19952;-87
2023/01/02 13:39:43;;;;;;;;;;;11.40;91.80;;;;;;5009862;28;19970;-87
2023/01/02 13:43:04;;;;;;;;;;;11.50;91.80;;;;;;5015819;28;19990;-87
2023/01/02 13:45:08;;;;;;;;;;;11.50;91.80;;;;;;4997133;28;19949;-87
2023/01/02 13:47:36;;;;;;;;;;;11.40;91.60;;;;;;5013500;28;20044;-87
2023/01/02 13:50:10;;;;;;;;;;;11.40;91.60;;;;;;5014341;28;19952;-87
2023/01/02 13:52:37;;;;;;;;;;;11.40;91.70;;;;;;5015664;28;19956;-87
2023/01/02 13:55:19;;;;;;;;;;;11.30;91.80;;;;;;5009184;28;20054;-87
2023/01/02 13:57:45;;;;;;;;;;;11.20;91.90;;;;;;5015003;28;19978;-88
2023/01/02 14:00:14;;;;;;;;;;;11.20;92.10;;;;;;5016064;28;19953;-87
2023/01/02 14:02:40;;;;;;;;;;;11.20;92.20;;;;;;5014567;28;19946;-87
2023/01/02 14:05:24;;;;;;;;;;;11.30;92.40;;;;;;5014203;28;20377;-88
2023/01/02 14:07:50;;;;;;;;;;;11.30;92.60;;;;;;5016034;28;19947;-87
2023/01/02 14:10:28;;;;;;;;;;;11.40;92.60;;;;;;5015810;28;19947;-87
2023/01/02 14:12:57;;;;;;;;;;;11.40;92.50;;;;;;4996566;28;19955;-87
2023/01/02 14:15:24;;;;;;;;;;;11.40;92.40;;;;;;5012309;28;20016;-87
2023/01/02 14:17:57;;;;;;;;;;;11.40;92.30;;;;;;5015120;28;19952;-87
2023/01/02 14:20:27;;;;;;;;;;;11.40;92.30;;;;;;5015170;28;19941;-88
2023/01/02 14:22:54;;;;;;;;;;;11.40;92.30;;;;;;5014291;28;19946;-87
2023/01/02 14:25:20;;;;;;;;;;;11.60;91.70;;;;;;5013680;28;19946;-87
2023/01/02 14:27:51;;;;;;;;;;;11.70;91.10;;;;;;5015077;28;19943;-87
2023/01/02 14:30:21;;;;;;;;;;;11.70;91.00;;;;;;5014569;28;20300;-87